ADDS METAR Data INFO
IDs: Format: Raw Decoded Include TAF

Data at: 0030 UTC 23 Oct 2017

KMWA 230015Z AUTO 34005KT 10SM -RA OVC007 14/14 A2999 RMK AO2 T01410138
KMWA 222345Z 35012KT 10SM RA OVC007 14/14 A2998
KMWA 222245Z 32010KT 3SM RA OVC006 15/15 A2998
KMWA 222145Z 32012G20 1SM +RA BKN006 BKN013 OVC034 17/17 A2998
KMWA 222135Z 22005KT 1SM BR SCT016 OVC037 20/20 A2996
KMWA 222045Z 22005KT 10SM OVC039 22/19 A2996
KMWA 221945Z 17009KT 10SM OVC031 23/18 A2998
KMWA 221845Z 18012G21KT 10SM BKN034 OVC042 24/18 A2998
KMWA 221745Z 18012G21KT 10SM BKN027 24/18 A2999
KMWA 221645Z 18012G21KT 10SM BKN027 22/19 A2999
KMWA 221545Z 18010G17KT 15SM BKN025 21/19 A3000
KMWA 221445Z 15010G16KT 15SM SCT035 SCT120 21/20 A3001
KMWA 221345Z 16010G16KT 10SM SCT050 BKN110 19/19 A3001
KMWA 221245Z 17012G16KT 7SM -RA SCT022 BKN070 OVC095 19/19 A3001
KMWA 221145Z 16015G22KT 20SM SCT060 21/16 A2999 RMK LTNG DSNT N AND SW
KMWA 221115Z AUTO 16012G19KT 10SM SCT040 SCT050 BKN080 21/17 A2999 RMK AO2 T02080166
KMWA 221055Z AUTO 17012G17KT 10SM BKN040 BKN070 OVC080 21/17 A2999 RMK AO2 T02080168
KMWA 221035Z AUTO 16014G19KT 10SM BKN065 OVC080 21/17 A2999 RMK AO2 T02100169
KMWA 221015Z AUTO 17014G20KT 10SM -RA SCT033 BKN047 OVC055 21/17 A2998 RMK AO2 T02090172
KMWA 220955Z AUTO 17012G16KT 130V190 10SM OVC047 22/17 A2999 RMK AO2 T02170165
KMWA 220935Z AUTO 16013G17KT 10SM SCT039 OVC047 22/17 A2999 RMK AO2 LTG DSNT W T02180166
KMWA 220915Z AUTO 16011G15KT 10SM OVC045 22/17 A2999 RMK AO2 T02150166
KMWA 220855Z AUTO 16012G16KT 10SM BKN045 BKN050 BKN110 21/17 A2999 RMK AO2 LTG DSNT NW T02130165
KMWA 220835Z AUTO 16011G17KT 10SM SCT050 SCT110 21/16 A2999 RMK AO2 T02100162
KMWA 220815Z AUTO 17011G15KT 10SM BKN100 21/16 A3001 RMK AO2 T02100162
KMWA 220755Z AUTO 16010G16KT 10SM OVC100 21/16 A3001 RMK AO2 T02100161
KMWA 220735Z AUTO 17009G14KT 10SM BKN100 21/16 A3002 RMK AO2 T02100160
KMWA 220715Z AUTO 16010KT 10SM OVC100 21/16 A3002 RMK AO2 T02110160
KMWA 220655Z AUTO 17010G15KT 10SM OVC100 21/16 A3003 RMK AO2 T02110160
KMWA 220635Z AUTO 16010KT 10SM OVC100 21/16 A3004 RMK AO2 T02120160
KMWA 220615Z AUTO 17009G14KT 10SM SCT100 21/16 A3005 RMK AO2 T02100160
KMWA 220555Z AUTO 17008KT 10SM CLR 21/16 A3004 RMK AO2 LTG DSNT W T02100161 10227 20210 402700120
KMWA 220535Z AUTO 16009G15KT 10SM CLR 21/16 A3004 RMK AO2 T02120162
KMWA 220515Z AUTO 16009G15KT 10SM CLR 21/16 A3005 RMK AO2 T02110163
KMWA 220455Z AUTO 16010KT 10SM CLR 21/16 A3006 RMK AO2 T02140163
KMWA 220435Z AUTO 17007KT 10SM CLR 21/16 A3006 RMK AO2 T02140163
KMWA 220415Z AUTO 16008G16KT 10SM CLR 22/16 A3006 RMK AO2 T02160162
KMWA 220355Z AUTO 17009KT 10SM CLR 22/16 A3006 RMK AO2 T02160161
KMWA 220335Z AUTO 17010G16KT 10SM CLR 22/16 A3006 RMK AO2 T02190161
KMWA 220315Z AUTO 16011G14KT 10SM CLR 22/16 A3006 RMK AO2 T02170160
KMWA 220255Z AUTO 16009G15KT 10SM CLR 22/16 A3007 RMK AO2 T02170157
KMWA 220235Z AUTO 16008G15KT 10SM CLR 22/16 A3007 RMK AO2 T02170155
KMWA 220215Z AUTO 16007G14KT 10SM CLR 22/15 A3007 RMK AO2 T02160152
KMWA 220155Z AUTO 16007KT 10SM CLR 22/15 A3007 RMK AO2 T02170151
KMWA 220135Z AUTO 15007KT 10SM CLR 22/15 A3007 RMK AO2 T02160150
KMWA 220115Z AUTO 15007KT 10SM CLR 22/15 A3007 RMK AO2 T02170147
KMWA 220055Z AUTO 15006KT 10SM CLR 22/15 A3007 RMK AO2 T02190145
KMWA 220035Z AUTO 14006KT 10SM CLR 22/14 A3007 RMK AO2 T02240142
KMWA 220015Z AUTO 14005KT 10SM CLR 23/14 A3007 RMK AO2 T02260140
KMWA 212345Z 14009KT 20SM FEW150 23/14 A3007
KMWA 212245Z 15010KT 20SM FEW150 25/14 A3007
KMWA 212145Z 17011KT 20SM SCT080 SCT150 26/13 A3007
KMWA 212045Z 18012G18KT 20SM SCT060 BKN150 26/14 A3008
KMWA 211945Z 19012G17KT 20SM SCT040 BKN050 26/14 A3008
KMWA 211845Z 18010KT 20SM BKN042 25/14 A3010
KMWA 211745Z 17010KT 20SM BKN042 BKN048 25/14 A3009
KMWA 211645Z 18010KT 20SM BKN050 23/12 A3013
KMWA 211545Z 16008KT 20SM SCT065 BKN100 20/11 A3015
KMWA 211445Z 17008KT 20SM SCT038 BKN150 19/11 A3015
KMWA 211345Z 17006KT 20SM BKN150 18/10 A3014
KMWA 211245Z 17006KT 20SM BKN150 16/10 A3014